METAR Data
IDs: Format: Raw Decoded Include TAF

Data at: 0720 UTC 24 Jan 2019

METAR for:KI69 (Batavia/Clermont Cnt, OH, US)
Text:KI69 240715Z AUTO 30009KT 2SM -SN OVC007 M01/M02 A2973 RMK AO2 T10121018
Temperature: -1.2°C ( 30°F)
Dewpoint: -1.8°C ( 29°F) [RH = 96%]
Pressure (altimeter):29.73 inches Hg (1006.9 mb)
Winds:from the WNW (300 degrees) at 10 MPH (9 knots; 4.6 m/s)
Visibility: 2.00 sm ( 3.22 km)
Ceiling:700 feet AGL
Clouds: overcast cloud deck at 700 feet AGL
Weather:-SN (light snow)
QC Flag:automated observation with no human augmentation